sensor_id;sensor_type;location;lat;lon;timestamp;P1;durP1;ratioP1;P2;durP2;ratioP2
67819;SDS011;54618;52.018;5.576;2023-02-27T00:02:12;5.25;;;1.30;;
67819;SDS011;54618;52.018;5.576;2023-02-27T00:04:37;3.95;;;1.52;;
67819;SDS011;54618;52.018;5.576;2023-02-27T00:07:03;5.07;;;1.60;;
67819;SDS011;54618;52.018;5.576;2023-02-27T00:09:28;3.72;;;1.80;;
67819;SDS011;54618;52.018;5.576;2023-02-27T00:11:54;4.30;;;1.80;;
67819;SDS011;54618;52.018;5.576;2023-02-27T00:14:19;3.42;;;1.40;;
67819;SDS011;54618;52.018;5.576;2023-02-27T00:16:45;4.97;;;1.60;;
67819;SDS011;54618;52.018;5.576;2023-02-27T00:19:11;4.85;;;1.50;;
67819;SDS011;54618;52.018;5.576;2023-02-27T00:21:37;2.95;;;1.35;;
67819;SDS011;54618;52.018;5.576;2023-02-27T00:24:03;4.10;;;1.60;;
67819;SDS011;54618;52.018;5.576;2023-02-27T00:26:29;4.43;;;1.45;;
67819;SDS011;54618;52.018;5.576;2023-02-27T00:28:55;4.28;;;1.45;;
67819;SDS011;54618;52.018;5.576;2023-02-27T00:31:20;3.28;;;1.50;;
67819;SDS011;54618;52.018;5.576;2023-02-27T00:33:46;5.10;;;1.67;;
67819;SDS011;54618;52.018;5.576;2023-02-27T00:36:12;3.78;;;1.27;;
67819;SDS011;54618;52.018;5.576;2023-02-27T00:38:37;4.03;;;1.40;;
67819;SDS011;54618;52.018;5.576;2023-02-27T00:41:03;3.85;;;1.58;;
67819;SDS011;54618;52.018;5.576;2023-02-27T00:43:28;4.60;;;1.20;;
67819;SDS011;54618;52.018;5.576;2023-02-27T00:45:54;3.58;;;1.40;;
67819;SDS011;54618;52.018;5.576;2023-02-27T00:48:19;4.03;;;1.60;;
67819;SDS011;54618;52.018;5.576;2023-02-27T00:50:45;5.93;;;1.63;;
67819;SDS011;54618;52.018;5.576;2023-02-27T00:53:11;4.68;;;1.30;;
67819;SDS011;54618;52.018;5.576;2023-02-27T00:55:37;4.20;;;1.30;;
67819;SDS011;54618;52.018;5.576;2023-02-27T00:58:02;3.40;;;1.20;;
67819;SDS011;54618;52.018;5.576;2023-02-27T01:00:28;3.40;;;1.45;;
67819;SDS011;54618;52.018;5.576;2023-02-27T01:02:53;5.30;;;1.70;;
67819;SDS011;54618;52.018;5.576;2023-02-27T01:05:19;4.93;;;1.38;;
67819;SDS011;54618;52.018;5.576;2023-02-27T01:07:45;3.70;;;1.30;;
67819;SDS011;54618;52.018;5.576;2023-02-27T01:10:10;3.97;;;1.25;;
67819;SDS011;54618;52.018;5.576;2023-02-27T01:12:36;4.38;;;1.52;;
67819;SDS011;54618;52.018;5.576;2023-02-27T01:15:03;2.40;;;1.27;;
67819;SDS011;54618;52.018;5.576;2023-02-27T01:17:29;4.70;;;1.70;;
67819;SDS011;54618;52.018;5.576;2023-02-27T01:19:55;4.63;;;1.40;;
67819;SDS011;54618;52.018;5.576;2023-02-27T01:22:21;2.53;;;1.10;;
67819;SDS011;54618;52.018;5.576;2023-02-27T01:24:46;4.47;;;1.42;;
67819;SDS011;54618;52.018;5.576;2023-02-27T01:27:12;4.25;;;1.27;;
67819;SDS011;54618;52.018;5.576;2023-02-27T01:29:37;4.47;;;1.30;;
67819;SDS011;54618;52.018;5.576;2023-02-27T01:32:03;5.32;;;1.40;;
67819;SDS011;54618;52.018;5.576;2023-02-27T01:34:29;4.32;;;1.48;;
67819;SDS011;54618;52.018;5.576;2023-02-27T01:36:54;3.75;;;1.15;;
67819;SDS011;54618;52.018;5.576;2023-02-27T01:39:20;4.05;;;1.40;;
67819;SDS011;54618;52.018;5.576;2023-02-27T01:41:45;3.50;;;1.38;;
67819;SDS011;54618;52.018;5.576;2023-02-27T01:44:12;3.22;;;1.30;;
67819;SDS011;54618;52.018;5.576;2023-02-27T01:46:38;2.90;;;1.38;;
67819;SDS011;54618;52.018;5.576;2023-02-27T01:49:17;4.15;;;1.40;;
67819;SDS011;54618;52.018;5.576;2023-02-27T01:51:50;3.65;;;1.35;;
67819;SDS011;54618;52.018;5.576;2023-02-27T01:54:20;2.88;;;1.20;;
67819;SDS011;54618;52.018;5.576;2023-02-27T01:56:50;3.40;;;1.20;;
67819;SDS011;54618;52.018;5.576;2023-02-27T01:59:16;2.47;;;1.17;;
67819;SDS011;54618;52.018;5.576;2023-02-27T02:01:44;4.38;;;1.13;;
67819;SDS011;54618;52.018;5.576;2023-02-27T02:06:43;2.97;;;1.05;;
67819;SDS011;54618;52.018;5.576;2023-02-27T02:09:12;3.30;;;1.33;;
67819;SDS011;54618;52.018;5.576;2023-02-27T02:11:40;2.92;;;1.20;;
67819;SDS011;54618;52.018;5.576;2023-02-27T02:14:06;3.53;;;1.33;;
67819;SDS011;54618;52.018;5.576;2023-02-27T02:30:44;3.35;;;1.30;;
67819;SDS011;54618;52.018;5.576;2023-02-27T02:44:37;3.97;;;1.25;;
67819;SDS011;54618;52.018;5.576;2023-02-27T02:55:27;2.60;;;1.02;;
67819;SDS011;54618;52.018;5.576;2023-02-27T02:58:13;3.08;;;1.20;;
67819;SDS011;54618;52.018;5.576;2023-02-27T03:00:47;2.97;;;1.17;;
67819;SDS011;54618;52.018;5.576;2023-02-27T03:03:25;2.38;;;1.10;;
67819;SDS011;54618;52.018;5.576;2023-02-27T03:05:57;3.00;;;1.20;;
67819;SDS011;54618;52.018;5.576;2023-02-27T03:08:30;3.40;;;1.17;;
67819;SDS011;54618;52.018;5.576;2023-02-27T03:11:01;3.45;;;1.40;;
67819;SDS011;54618;52.018;5.576;2023-02-27T03:13:29;3.92;;;1.20;;
67819;SDS011;54618;52.018;5.576;2023-02-27T03:16:06;3.60;;;1.33;;
67819;SDS011;54618;52.018;5.576;2023-02-27T03:19:24;3.15;;;1.00;;
67819;SDS011;54618;52.018;5.576;2023-02-27T03:22:18;2.85;;;1.23;;
67819;SDS011;54618;52.018;5.576;2023-02-27T03:24:34;2.42;;;1.10;;
67819;SDS011;54618;52.018;5.576;2023-02-27T03:27:01;3.35;;;1.10;;
67819;SDS011;54618;52.018;5.576;2023-02-27T03:32:22;3.00;;;1.20;;
67819;SDS011;54618;52.018;5.576;2023-02-27T03:34:55;2.75;;;1.20;;
67819;SDS011;54618;52.018;5.576;2023-02-27T03:38:05;4.20;;;1.48;;
67819;SDS011;54618;52.018;5.576;2023-02-27T03:40:37;1.88;;;0.80;;
67819;SDS011;54618;52.018;5.576;2023-02-27T03:43:17;2.97;;;1.00;;
67819;SDS011;54618;52.018;5.576;2023-02-27T03:48:17;2.95;;;1.10;;
67819;SDS011;54618;52.018;5.576;2023-02-27T03:50:43;3.13;;;1.10;;
67819;SDS011;54618;52.018;5.576;2023-02-27T03:53:18;2.55;;;1.02;;
67819;SDS011;54618;52.018;5.576;2023-02-27T03:56:06;3.40;;;1.10;;
67819;SDS011;54618;52.018;5.576;2023-02-27T03:58:33;3.05;;;1.10;;
67819;SDS011;54618;52.018;5.576;2023-02-27T04:00:59;2.08;;;1.00;;
67819;SDS011;54618;52.018;5.576;2023-02-27T04:03:25;3.20;;;1.17;;
67819;SDS011;54618;52.018;5.576;2023-02-27T04:05:52;2.17;;;1.10;;
67819;SDS011;54618;52.018;5.576;2023-02-27T04:11:15;2.50;;;1.00;;
67819;SDS011;54618;52.018;5.576;2023-02-27T04:35:46;1.80;;;0.93;;
67819;SDS011;54618;52.018;5.576;2023-02-27T04:41:02;2.40;;;1.10;;
67819;SDS011;54618;52.018;5.576;2023-02-27T04:43:32;2.05;;;0.90;;
67819;SDS011;54618;52.018;5.576;2023-02-27T04:46:00;2.55;;;1.00;;
67819;SDS011;54618;52.018;5.576;2023-02-27T04:48:29;2.65;;;1.23;;
67819;SDS011;54618;52.018;5.576;2023-02-27T04:51:06;2.17;;;0.90;;
67819;SDS011;54618;52.018;5.576;2023-02-27T04:56:31;2.25;;;1.08;;
67819;SDS011;54618;52.018;5.576;2023-02-27T04:59:10;2.30;;;1.00;;
67819;SDS011;54618;52.018;5.576;2023-02-27T05:01:40;1.85;;;0.88;;
67819;SDS011;54618;52.018;5.576;2023-02-27T05:04:12;2.70;;;1.13;;
67819;SDS011;54618;52.018;5.576;2023-02-27T05:06:40;2.42;;;0.95;;
67819;SDS011;54618;52.018;5.576;2023-02-27T05:09:13;1.75;;;1.00;;
67819;SDS011;54618;52.018;5.576;2023-02-27T05:11:59;2.20;;;1.00;;
67819;SDS011;54618;52.018;5.576;2023-02-27T05:14:36;3.42;;;1.00;;
67819;SDS011;54618;52.018;5.576;2023-02-27T05:17:10;2.60;;;1.00;;
67819;SDS011;54618;52.018;5.576;2023-02-27T05:19:46;3.10;;;1.15;;
67819;SDS011;54618;52.018;5.576;2023-02-27T05:22:15;4.03;;;1.05;;
67819;SDS011;54618;52.018;5.576;2023-02-27T05:37:45;2.90;;;1.15;;
67819;SDS011;54618;52.018;5.576;2023-02-27T05:40:18;2.45;;;1.05;;
67819;SDS011;54618;52.018;5.576;2023-02-27T05:42:51;2.22;;;1.00;;
67819;SDS011;54618;52.018;5.576;2023-02-27T05:45:28;1.58;;;0.90;;
67819;SDS011;54618;52.018;5.576;2023-02-27T05:48:01;2.22;;;0.80;;
67819;SDS011;54618;52.018;5.576;2023-02-27T05:50:33;2.95;;;1.17;;
67819;SDS011;54618;52.018;5.576;2023-02-27T05:53:02;2.13;;;1.00;;
67819;SDS011;54618;52.018;5.576;2023-02-27T05:55:36;1.83;;;0.90;;
67819;SDS011;54618;52.018;5.576;2023-02-27T06:01:05;3.40;;;1.10;;
67819;SDS011;54618;52.018;5.576;2023-02-27T06:03:33;2.20;;;0.95;;
67819;SDS011;54618;52.018;5.576;2023-02-27T06:06:02;2.13;;;0.98;;
67819;SDS011;54618;52.018;5.576;2023-02-27T06:08:30;3.20;;;1.30;;
67819;SDS011;54618;52.018;5.576;2023-02-27T06:10:56;2.40;;;0.93;;
67819;SDS011;54618;52.018;5.576;2023-02-27T06:13:22;2.78;;;0.90;;
67819;SDS011;54618;52.018;5.576;2023-02-27T06:15:49;2.65;;;0.93;;
67819;SDS011;54618;52.018;5.576;2023-02-27T06:18:16;1.60;;;1.10;;
67819;SDS011;54618;52.018;5.576;2023-02-27T06:20:42;2.35;;;1.20;;
67819;SDS011;54618;52.018;5.576;2023-02-27T06:23:09;2.85;;;1.00;;
67819;SDS011;54618;52.018;5.576;2023-02-27T06:25:35;2.22;;;1.00;;
67819;SDS011;54618;52.018;5.576;2023-02-27T06:28:01;2.58;;;1.00;;
67819;SDS011;54618;52.018;5.576;2023-02-27T06:30:27;4.45;;;1.42;;
67819;SDS011;54618;52.018;5.576;2023-02-27T06:32:53;2.40;;;1.02;;
67819;SDS011;54618;52.018;5.576;2023-02-27T06:35:19;2.05;;;1.00;;
67819;SDS011;54618;52.018;5.576;2023-02-27T06:37:45;1.85;;;0.90;;
67819;SDS011;54618;52.018;5.576;2023-02-27T06:40:10;1.92;;;0.88;;
67819;SDS011;54618;52.018;5.576;2023-02-27T06:42:36;2.58;;;1.10;;
67819;SDS011;54618;52.018;5.576;2023-02-27T06:45:03;2.03;;;0.90;;
67819;SDS011;54618;52.018;5.576;2023-02-27T06:47:30;2.70;;;1.10;;
67819;SDS011;54618;52.018;5.576;2023-02-27T06:49:56;1.80;;;1.02;;
67819;SDS011;54618;52.018;5.576;2023-02-27T06:52:21;2.70;;;1.00;;
67819;SDS011;54618;52.018;5.576;2023-02-27T06:54:47;1.92;;;0.90;;
67819;SDS011;54618;52.018;5.576;2023-02-27T06:57:13;2.30;;;0.93;;
67819;SDS011;54618;52.018;5.576;2023-02-27T06:59:39;1.55;;;1.00;;
67819;SDS011;54618;52.018;5.576;2023-02-27T07:02:04;2.55;;;0.90;;
67819;SDS011;54618;52.018;5.576;2023-02-27T07:04:30;2.83;;;1.10;;
67819;SDS011;54618;52.018;5.576;2023-02-27T07:06:56;2.63;;;1.00;;
67819;SDS011;54618;52.018;5.576;2023-02-27T07:09:23;2.13;;;0.90;;
67819;SDS011;54618;52.018;5.576;2023-02-27T07:11:49;1.65;;;0.90;;
67819;SDS011;54618;52.018;5.576;2023-02-27T07:14:15;2.67;;;0.90;;
67819;SDS011;54618;52.018;5.576;2023-02-27T07:16:41;1.63;;;0.88;;
67819;SDS011;54618;52.018;5.576;2023-02-27T07:19:06;1.73;;;0.93;;
67819;SDS011;54618;52.018;5.576;2023-02-27T07:21:32;2.08;;;1.00;;
67819;SDS011;54618;52.018;5.576;2023-02-27T07:23:58;2.50;;;1.10;;
67819;SDS011;54618;52.018;5.576;2023-02-27T07:26:24;2.20;;;0.90;;
67819;SDS011;54618;52.018;5.576;2023-02-27T07:28:49;3.97;;;1.02;;
67819;SDS011;54618;52.018;5.576;2023-02-27T07:31:15;1.73;;;0.80;;
67819;SDS011;54618;52.018;5.576;2023-02-27T07:33:41;2.33;;;0.90;;
67819;SDS011;54618;52.018;5.576;2023-02-27T07:36:07;1.60;;;0.77;;
67819;SDS011;54618;52.018;5.576;2023-02-27T07:38:32;2.22;;;1.00;;
67819;SDS011;54618;52.018;5.576;2023-02-27T07:40:58;2.80;;;1.02;;
67819;SDS011;54618;52.018;5.576;2023-02-27T07:43:24;1.88;;;0.90;;
67819;SDS011;54618;52.018;5.576;2023-02-27T07:45:49;1.88;;;0.85;;
67819;SDS011;54618;52.018;5.576;2023-02-27T07:48:15;1.45;;;0.82;;
67819;SDS011;54618;52.018;5.576;2023-02-27T07:50:42;2.35;;;0.95;;
67819;SDS011;54618;52.018;5.576;2023-02-27T07:53:07;2.63;;;0.90;;
67819;SDS011;54618;52.018;5.576;2023-02-27T07:55:33;1.70;;;0.80;;
67819;SDS011;54618;52.018;5.576;2023-02-27T07:58:00;3.20;;;0.93;;
67819;SDS011;54618;52.018;5.576;2023-02-27T08:00:26;2.47;;;1.00;;
67819;SDS011;54618;52.018;5.576;2023-02-27T08:02:51;2.67;;;0.90;;
67819;SDS011;54618;52.018;5.576;2023-02-27T08:05:17;1.58;;;0.77;;
67819;SDS011;54618;52.018;5.576;2023-02-27T08:07:42;1.67;;;0.93;;
67819;SDS011;54618;52.018;5.576;2023-02-27T08:10:08;1.92;;;1.00;;
67819;SDS011;54618;52.018;5.576;2023-02-27T08:12:34;2.13;;;0.93;;
67819;SDS011;54618;52.018;5.576;2023-02-27T08:15:00;2.78;;;0.95;;
67819;SDS011;54618;52.018;5.576;2023-02-27T08:17:25;2.28;;;0.90;;
67819;SDS011;54618;52.018;5.576;2023-02-27T08:19:51;4.97;;;1.00;;
67819;SDS011;54618;52.018;5.576;2023-02-27T08:22:16;3.47;;;0.90;;
67819;SDS011;54618;52.018;5.576;2023-02-27T08:24:42;2.92;;;0.90;;
67819;SDS011;54618;52.018;5.576;2023-02-27T08:27:08;2.53;;;0.90;;
67819;SDS011;54618;52.018;5.576;2023-02-27T08:29:33;2.65;;;1.08;;
67819;SDS011;54618;52.018;5.576;2023-02-27T08:31:59;1.70;;;0.80;;
67819;SDS011;54618;52.018;5.576;2023-02-27T08:34:26;1.83;;;0.85;;
67819;SDS011;54618;52.018;5.576;2023-02-27T08:36:51;1.77;;;0.80;;
67819;SDS011;54618;52.018;5.576;2023-02-27T08:39:17;1.40;;;0.70;;
67819;SDS011;54618;52.018;5.576;2023-02-27T08:41:44;2.28;;;0.90;;
67819;SDS011;54618;52.018;5.576;2023-02-27T08:44:12;2.90;;;0.90;;
67819;SDS011;54618;52.018;5.576;2023-02-27T08:46:38;1.95;;;0.95;;
67819;SDS011;54618;52.018;5.576;2023-02-27T08:49:04;2.63;;;1.10;;
67819;SDS011;54618;52.018;5.576;2023-02-27T08:51:29;2.30;;;1.00;;
67819;SDS011;54618;52.018;5.576;2023-02-27T08:53:55;2.20;;;1.00;;
67819;SDS011;54618;52.018;5.576;2023-02-27T08:56:23;1.35;;;0.80;;
67819;SDS011;54618;52.018;5.576;2023-02-27T08:58:50;3.55;;;1.05;;
67819;SDS011;54618;52.018;5.576;2023-02-27T09:01:16;1.50;;;0.80;;
67819;SDS011;54618;52.018;5.576;2023-02-27T09:03:42;2.10;;;0.80;;
67819;SDS011;54618;52.018;5.576;2023-02-27T09:06:07;2.58;;;0.90;;
67819;SDS011;54618;52.018;5.576;2023-02-27T09:08:33;2.17;;;0.80;;
67819;SDS011;54618;52.018;5.576;2023-02-27T09:10:59;1.40;;;0.70;;
67819;SDS011;54618;52.018;5.576;2023-02-27T09:13:24;1.85;;;0.90;;
67819;SDS011;54618;52.018;5.576;2023-02-27T09:15:50;2.30;;;0.90;;
67819;SDS011;54618;52.018;5.576;2023-02-27T09:18:17;1.63;;;0.90;;
67819;SDS011;54618;52.018;5.576;2023-02-27T09:20:42;3.90;;;1.00;;
67819;SDS011;54618;52.018;5.576;2023-02-27T09:23:08;2.08;;;0.90;;
67819;SDS011;54618;52.018;5.576;2023-02-27T09:25:34;7.05;;;1.00;;
67819;SDS011;54618;52.018;5.576;2023-02-27T09:28:00;3.08;;;0.70;;
67819;SDS011;54618;52.018;5.576;2023-02-27T09:30:25;2.85;;;1.05;;
67819;SDS011;54618;52.018;5.576;2023-02-27T09:32:51;2.33;;;1.00;;
67819;SDS011;54618;52.018;5.576;2023-02-27T09:35:16;3.08;;;0.95;;
67819;SDS011;54618;52.018;5.576;2023-02-27T09:37:44;1.67;;;0.90;;
67819;SDS011;54618;52.018;5.576;2023-02-27T09:40:16;2.38;;;1.00;;
67819;SDS011;54618;52.018;5.576;2023-02-27T09:42:55;3.83;;;0.90;;
67819;SDS011;54618;52.018;5.576;2023-02-27T09:45:27;3.58;;;1.00;;
67819;SDS011;54618;52.018;5.576;2023-02-27T09:47:59;3.28;;;0.80;;
67819;SDS011;54618;52.018;5.576;2023-02-27T09:50:48;1.95;;;1.00;;
67819;SDS011;54618;52.018;5.576;2023-02-27T09:55:56;6.07;;;1.00;;
67819;SDS011;54618;52.018;5.576;2023-02-27T09:58:42;3.50;;;0.88;;
67819;SDS011;54618;52.018;5.576;2023-02-27T10:01:30;1.77;;;0.70;;
67819;SDS011;54618;52.018;5.576;2023-02-27T10:04:12;2.30;;;0.90;;
67819;SDS011;54618;52.018;5.576;2023-02-27T10:06:55;3.35;;;0.77;;
67819;SDS011;54618;52.018;5.576;2023-02-27T10:09:45;2.45;;;0.90;;
67819;SDS011;54618;52.018;5.576;2023-02-27T10:15:30;1.05;;;0.60;;
67819;SDS011;54618;52.018;5.576;2023-02-27T10:18:09;3.05;;;0.93;;
67819;SDS011;54618;52.018;5.576;2023-02-27T10:20:49;2.15;;;0.80;;
67819;SDS011;54618;52.018;5.576;2023-02-27T10:23:55;2.20;;;0.80;;
67819;SDS011;54618;52.018;5.576;2023-02-27T10:26:27;1.45;;;0.70;;
67819;SDS011;54618;52.018;5.576;2023-02-27T10:28:56;2.83;;;0.80;;
67819;SDS011;54618;52.018;5.576;2023-02-27T10:31:24;1.80;;;0.85;;
67819;SDS011;54618;52.018;5.576;2023-02-27T10:33:54;1.60;;;0.73;;
67819;SDS011;54618;52.018;5.576;2023-02-27T10:36:21;2.67;;;0.80;;
67819;SDS011;54618;52.018;5.576;2023-02-27T10:38:54;2.25;;;0.80;;
67819;SDS011;54618;52.018;5.576;2023-02-27T10:41:24;1.23;;;0.60;;
67819;SDS011;54618;52.018;5.576;2023-02-27T10:43:51;1.30;;;0.70;;
67819;SDS011;54618;52.018;5.576;2023-02-27T10:46:25;2.42;;;0.80;;
67819;SDS011;54618;52.018;5.576;2023-02-27T10:48:53;2.22;;;0.73;;
67819;SDS011;54618;52.018;5.576;2023-02-27T10:51:27;1.02;;;0.55;;
67819;SDS011;54618;52.018;5.576;2023-02-27T10:54:13;1.25;;;0.77;;
67819;SDS011;54618;52.018;5.576;2023-02-27T10:56:50;1.90;;;0.90;;
67819;SDS011;54618;52.018;5.576;2023-02-27T10:59:25;2.65;;;0.80;;
67819;SDS011;54618;52.018;5.576;2023-02-27T11:01:55;2.17;;;0.70;;
67819;SDS011;54618;52.018;5.576;2023-02-27T11:04:28;2.25;;;0.60;;
67819;SDS011;54618;52.018;5.576;2023-02-27T11:07:03;1.30;;;0.70;;
67819;SDS011;54618;52.018;5.576;2023-02-27T11:09:48;2.28;;;0.80;;
67819;SDS011;54618;52.018;5.576;2023-02-27T11:12:36;2.47;;;0.80;;
67819;SDS011;54618;52.018;5.576;2023-02-27T11:15:28;0.90;;;0.55;;
67819;SDS011;54618;52.018;5.576;2023-02-27T11:17:50;2.92;;;0.80;;
67819;SDS011;54618;52.018;5.576;2023-02-27T11:23:19;2.25;;;0.77;;
67819;SDS011;54618;52.018;5.576;2023-02-27T11:25:47;2.22;;;0.60;;
67819;SDS011;54618;52.018;5.576;2023-02-27T11:28:26;2.33;;;0.85;;
67819;SDS011;54618;52.018;5.576;2023-02-27T11:30:58;3.03;;;0.68;;
67819;SDS011;54618;52.018;5.576;2023-02-27T11:33:28;2.45;;;0.90;;
67819;SDS011;54618;52.018;5.576;2023-02-27T11:35:57;1.58;;;0.70;;
67819;SDS011;54618;52.018;5.576;2023-02-27T11:38:27;2.38;;;0.60;;
67819;SDS011;54618;52.018;5.576;2023-02-27T11:40:59;1.55;;;0.60;;
67819;SDS011;54618;52.018;5.576;2023-02-27T11:43:28;3.67;;;0.95;;
67819;SDS011;54618;52.018;5.576;2023-02-27T11:46:01;1.43;;;0.63;;
67819;SDS011;54618;52.018;5.576;2023-02-27T11:48:30;1.42;;;0.60;;
67819;SDS011;54618;52.018;5.576;2023-02-27T11:56:43;1.88;;;0.70;;
67819;SDS011;54618;52.018;5.576;2023-02-27T12:01:52;1.45;;;0.60;;
67819;SDS011;54618;52.018;5.576;2023-02-27T12:07:01;2.00;;;0.60;;
67819;SDS011;54618;52.018;5.576;2023-02-27T12:09:38;1.10;;;0.60;;
67819;SDS011;54618;52.018;5.576;2023-02-27T12:12:18;2.65;;;0.70;;
67819;SDS011;54618;52.018;5.576;2023-02-27T12:14:56;1.20;;;0.60;;
67819;SDS011;54618;52.018;5.576;2023-02-27T12:20:17;1.92;;;0.73;;
67819;SDS011;54618;52.018;5.576;2023-02-27T12:22:50;1.50;;;0.60;;
67819;SDS011;54618;52.018;5.576;2023-02-27T12:25:22;1.83;;;0.60;;
67819;SDS011;54618;52.018;5.576;2023-02-27T12:28:19;1.40;;;0.43;;
67819;SDS011;54618;52.018;5.576;2023-02-27T12:31:06;1.52;;;0.70;;
67819;SDS011;54618;52.018;5.576;2023-02-27T12:36:39;2.35;;;0.70;;
67819;SDS011;54618;52.018;5.576;2023-02-27T12:39:05;1.00;;;0.55;;
67819;SDS011;54618;52.018;5.576;2023-02-27T12:41:58;2.70;;;0.60;;
67819;SDS011;54618;52.018;5.576;2023-02-27T12:47:30;2.22;;;0.60;;
67819;SDS011;54618;52.018;5.576;2023-02-27T12:50:11;2.30;;;0.57;;
67819;SDS011;54618;52.018;5.576;2023-02-27T12:55:26;2.90;;;0.60;;
67819;SDS011;54618;52.018;5.576;2023-02-27T13:00:52;2.40;;;0.80;;
67819;SDS011;54618;52.018;5.576;2023-02-27T13:06:35;1.73;;;0.57;;
67819;SDS011;54618;52.018;5.576;2023-02-27T13:09:30;1.88;;;0.60;;
67819;SDS011;54618;52.018;5.576;2023-02-27T13:12:32;1.88;;;0.60;;
67819;SDS011;54618;52.018;5.576;2023-02-27T13:17:47;1.80;;;0.60;;
67819;SDS011;54618;52.018;5.576;2023-02-27T13:22:57;2.63;;;0.60;;
67819;SDS011;54618;52.018;5.576;2023-02-27T13:25:51;1.90;;;0.50;;
67819;SDS011;54618;52.018;5.576;2023-02-27T13:28:22;1.10;;;0.50;;
67819;SDS011;54618;52.018;5.576;2023-02-27T13:31:06;1.53;;;0.60;;
67819;SDS011;54618;52.018;5.576;2023-02-27T13:33:49;2.58;;;0.50;;
67819;SDS011;54618;52.018;5.576;2023-02-27T13:36:39;1.58;;;0.60;;
67819;SDS011;54618;52.018;5.576;2023-02-27T13:42:04;1.13;;;0.55;;
67819;SDS011;54618;52.018;5.576;2023-02-27T13:44:49;1.05;;;0.50;;
67819;SDS011;54618;52.018;5.576;2023-02-27T13:49:58;1.80;;;0.50;;
67819;SDS011;54618;52.018;5.576;2023-02-27T13:52:33;2.25;;;0.55;;
67819;SDS011;54618;52.018;5.576;2023-02-27T13:55:00;1.02;;;0.40;;
67819;SDS011;54618;52.018;5.576;2023-02-27T13:57:31;0.95;;;0.50;;
67819;SDS011;54618;52.018;5.576;2023-02-27T14:03:17;0.88;;;0.50;;
67819;SDS011;54618;52.018;5.576;2023-02-27T14:05:46;0.95;;;0.40;;
67819;SDS011;54618;52.018;5.576;2023-02-27T14:08:17;2.72;;;0.60;;
67819;SDS011;54618;52.018;5.576;2023-02-27T14:11:36;2.03;;;0.60;;
67819;SDS011;54618;52.018;5.576;2023-02-27T14:13:59;1.00;;;0.50;;
67819;SDS011;54618;52.018;5.576;2023-02-27T14:19:03;2.80;;;0.47;;
67819;SDS011;54618;52.018;5.576;2023-02-27T14:24:29;1.42;;;0.60;;
67819;SDS011;54618;52.018;5.576;2023-02-27T14:27:02;1.42;;;0.60;;
67819;SDS011;54618;52.018;5.576;2023-02-27T14:29:30;1.23;;;0.50;;
67819;SDS011;54618;52.018;5.576;2023-02-27T14:31:59;2.10;;;0.60;;
67819;SDS011;54618;52.018;5.576;2023-02-27T14:34:27;1.40;;;0.50;;
67819;SDS011;54618;52.018;5.576;2023-02-27T14:36:56;2.08;;;0.40;;
67819;SDS011;54618;52.018;5.576;2023-02-27T14:45:10;1.80;;;0.35;;
67819;SDS011;54618;52.018;5.576;2023-02-27T14:47:38;0.80;;;0.40;;
67819;SDS011;54618;52.018;5.576;2023-02-27T14:50:06;1.50;;;0.47;;
67819;SDS011;54618;52.018;5.576;2023-02-27T14:52:46;2.58;;;0.60;;
67819;SDS011;54618;52.018;5.576;2023-02-27T14:57:55;3.45;;;0.50;;
67819;SDS011;54618;52.018;5.576;2023-02-27T15:00:34;2.28;;;0.60;;
67819;SDS011;54618;52.018;5.576;2023-02-27T15:03:09;1.35;;;0.52;;
67819;SDS011;54618;52.018;5.576;2023-02-27T15:05:44;0.90;;;0.55;;
67819;SDS011;54618;52.018;5.576;2023-02-27T15:08:15;1.85;;;0.50;;
67819;SDS011;54618;52.018;5.576;2023-02-27T15:10:46;1.13;;;0.40;;
67819;SDS011;54618;52.018;5.576;2023-02-27T15:13:18;1.65;;;0.43;;
67819;SDS011;54618;52.018;5.576;2023-02-27T15:15:48;2.67;;;0.63;;
67819;SDS011;54618;52.018;5.576;2023-02-27T15:18:16;4.40;;;0.60;;
67819;SDS011;54618;52.018;5.576;2023-02-27T15:20:42;1.05;;;0.50;;
67819;SDS011;54618;52.018;5.576;2023-02-27T15:23:41;1.77;;;0.50;;
67819;SDS011;54618;52.018;5.576;2023-02-27T15:25:59;1.88;;;0.50;;
67819;SDS011;54618;52.018;5.576;2023-02-27T15:28:26;1.75;;;0.43;;
67819;SDS011;54618;52.018;5.576;2023-02-27T15:30:59;1.85;;;0.50;;
67819;SDS011;54618;52.018;5.576;2023-02-27T15:33:29;1.95;;;0.60;;
67819;SDS011;54618;52.018;5.576;2023-02-27T15:35:57;1.20;;;0.60;;
67819;SDS011;54618;52.018;5.576;2023-02-27T15:40:51;1.08;;;0.50;;
67819;SDS011;54618;52.018;5.576;2023-02-27T15:43:18;1.50;;;0.47;;
67819;SDS011;54618;52.018;5.576;2023-02-27T15:45:45;0.88;;;0.60;;
67819;SDS011;54618;52.018;5.576;2023-02-27T15:48:12;3.75;;;0.70;;
67819;SDS011;54618;52.018;5.576;2023-02-27T15:50:42;2.03;;;0.50;;
67819;SDS011;54618;52.018;5.576;2023-02-27T15:53:11;1.60;;;0.50;;
67819;SDS011;54618;52.018;5.576;2023-02-27T15:55:42;1.92;;;0.45;;
67819;SDS011;54618;52.018;5.576;2023-02-27T15:58:18;1.17;;;0.50;;
67819;SDS011;54618;52.018;5.576;2023-02-27T16:01:00;2.83;;;0.50;;
67819;SDS011;54618;52.018;5.576;2023-02-27T16:03:28;1.13;;;0.50;;
67819;SDS011;54618;52.018;5.576;2023-02-27T16:06:00;2.67;;;0.60;;
67819;SDS011;54618;52.018;5.576;2023-02-27T16:08:26;1.33;;;0.50;;
67819;SDS011;54618;52.018;5.576;2023-02-27T16:10:55;1.85;;;0.50;;
67819;SDS011;54618;52.018;5.576;2023-02-27T16:13:30;1.25;;;0.50;;
67819;SDS011;54618;52.018;5.576;2023-02-27T16:16:04;1.70;;;0.50;;
67819;SDS011;54618;52.018;5.576;2023-02-27T16:18:49;2.53;;;0.40;;
67819;SDS011;54618;52.018;5.576;2023-02-27T16:23:46;2.08;;;0.60;;
67819;SDS011;54618;52.018;5.576;2023-02-27T16:26:31;1.98;;;0.60;;
67819;SDS011;54618;52.018;5.576;2023-02-27T16:29:04;2.72;;;0.50;;
67819;SDS011;54618;52.018;5.576;2023-02-27T16:31:42;1.25;;;0.43;;
67819;SDS011;54618;52.018;5.576;2023-02-27T16:36:36;2.20;;;0.70;;
67819;SDS011;54618;52.018;5.576;2023-02-27T16:39:02;2.28;;;0.45;;
67819;SDS011;54618;52.018;5.576;2023-02-27T16:41:30;1.50;;;0.50;;
67819;SDS011;54618;52.018;5.576;2023-02-27T16:43:55;1.02;;;0.40;;
67819;SDS011;54618;52.018;5.576;2023-02-27T16:46:21;2.33;;;0.57;;
67819;SDS011;54618;52.018;5.576;2023-02-27T16:48:48;1.65;;;0.50;;
67819;SDS011;54618;52.018;5.576;2023-02-27T16:51:17;1.52;;;0.65;;
67819;SDS011;54618;52.018;5.576;2023-02-27T16:53:47;1.27;;;0.55;;
67819;SDS011;54618;52.018;5.576;2023-02-27T16:56:13;1.58;;;0.60;;
67819;SDS011;54618;52.018;5.576;2023-02-27T16:58:39;1.30;;;0.43;;
67819;SDS011;54618;52.018;5.576;2023-02-27T17:01:05;2.05;;;0.60;;
67819;SDS011;54618;52.018;5.576;2023-02-27T17:03:30;0.68;;;0.40;;
67819;SDS011;54618;52.018;5.576;2023-02-27T17:05:57;1.98;;;0.57;;
67819;SDS011;54618;52.018;5.576;2023-02-27T17:08:23;1.50;;;0.60;;
67819;SDS011;54618;52.018;5.576;2023-02-27T17:10:49;1.85;;;0.50;;
67819;SDS011;54618;52.018;5.576;2023-02-27T17:13:14;1.55;;;0.65;;
67819;SDS011;54618;52.018;5.576;2023-02-27T17:15:41;1.88;;;0.60;;
67819;SDS011;54618;52.018;5.576;2023-02-27T17:18:06;3.85;;;0.60;;
67819;SDS011;54618;52.018;5.576;2023-02-27T17:20:32;2.22;;;0.60;;
67819;SDS011;54618;52.018;5.576;2023-02-27T17:22:58;2.53;;;0.60;;
67819;SDS011;54618;52.018;5.576;2023-02-27T17:25:25;4.07;;;0.90;;
67819;SDS011;54618;52.018;5.576;2023-02-27T17:27:51;3.85;;;0.70;;
67819;SDS011;54618;52.018;5.576;2023-02-27T17:30:17;2.20;;;0.70;;
67819;SDS011;54618;52.018;5.576;2023-02-27T17:32:43;1.52;;;0.60;;
67819;SDS011;54618;52.018;5.576;2023-02-27T17:35:09;2.22;;;0.52;;
67819;SDS011;54618;52.018;5.576;2023-02-27T17:37:34;2.08;;;0.70;;
67819;SDS011;54618;52.018;5.576;2023-02-27T17:40:00;1.58;;;0.60;;
67819;SDS011;54618;52.018;5.576;2023-02-27T17:42:29;4.50;;;0.63;;
67819;SDS011;54618;52.018;5.576;2023-02-27T17:44:55;2.17;;;0.55;;
67819;SDS011;54618;52.018;5.576;2023-02-27T17:47:21;2.92;;;0.70;;
67819;SDS011;54618;52.018;5.576;2023-02-27T17:49:46;4.22;;;0.70;;